(°C)
11°
10°
(°C)
-0°
ЮЗ
ЗЮЗ
З
ЗСЗ
ЗСЗ
ЗСЗ
З
(км/ч)
24-39
24-36
22-34
24-30
22-30
20-28
19-27
(мм)
0
0
0.7
1.2
1
0.8
0
(%)
6
55
88
91
99
93
73

Sun elevation

/ 25.5°
sun-icon
UV 3
06:06
21:08
Первая четверть (93°)
10:46
05:11

METAR for Stora Risøya (ENSO)

Время Условия Температура/
Точка росы
Ветер Видимость Погода Облачность Давление Изменить Необработанный
VFR 12°C / 6°C 240º variable 170º to 280º 7kt >10km - Few Clouds 1500ft 1015 - ENSO 201420Z 24007KT 170V280 9999 FEW015 SCT027 BKN150 12/06 Q1015
VFR 11°C / 5°C 240º variable 190º to 290º 7kt >10km - Few Clouds 2700ft 1015 - ENSO 201350Z 24007KT 190V290 9999 FEW027 SCT050 11/05 Q1015
VFR 14°C / 5°C 230º 9kt >10km - Clouds and Visibility OK 1016 - ENSO 201250Z 23009KT CAVOK 14/05 Q1016
VFR 12°C / 5°C 210º variable 150º to 270º 11kt Gust 22kt >10km - Clouds and Visibility OK 1016 - ENSO 201220Z 21011G22KT 150V270 CAVOK 12/05 Q1016
VFR 11°C / 4°C 200º 13kt Gust 27kt >10km - Clouds and Visibility OK 1016 - ENSO 201150Z 20013G27KT CAVOK 11/04 Q1016
VFR 13°C / 4°C 200º 14kt >10km - Clouds and Visibility OK 1016 - ENSO 201120Z 20014KT CAVOK 13/04 Q1016
VFR 12°C / 1°C 180º 10kt >10km - Clouds and Visibility OK 1017 - ENSO 201020Z 18010KT CAVOK 12/01 Q1017
VFR 12°C / 1°C 190º variable 150º to 240º 11kt >10km - Clouds and Visibility OK 1017 - ENSO 200950Z 19011KT 150V240 CAVOK 12/01 Q1017
VFR 13°C / 1°C 190º variable 150º to 230º 10kt >10km - Clouds and Visibility OK 1017 - ENSO 200920Z 19010KT 150V230 CAVOK 13/01 Q1017
VFR 12°C / 0°C 140º 11kt >10km - Clouds and Visibility OK 1017 - ENSO 200850Z 14011KT CAVOK 12/00 Q1017
VFR 11°C / 0°C 140º 13kt >10km - Clouds and Visibility OK 1017 - ENSO 200820Z 14013KT CAVOK 11/00 Q1017
VFR 11°C / 1°C 140º 13kt >10km - Clouds and Visibility OK 1018 - ENSO 200750Z 14013KT CAVOK 11/01 Q1018
VFR 10°C / 1°C 140º 12kt >10km - Clouds and Visibility OK 1018 - ENSO 200720Z 14012KT CAVOK 10/01 Q1018
VFR 9°C / 1°C 130º 11kt >10km - Clouds and Visibility OK 1018 - ENSO 200650Z 13011KT CAVOK 09/01 Q1018
VFR 8°C / 2°C 140º 8kt >10km - Clouds and Visibility OK 1018 - ENSO 200620Z 14008KT CAVOK 08/02 Q1018
VFR 7°C / 2°C 170º variable 130º to 220º 5kt >10km - Clouds and Visibility OK 1019 - ENSO 200550Z 17005KT 130V220 CAVOK 07/02 Q1019
VFR 6°C / 2°C 140º 8kt >10km - Clouds and Visibility OK 1019 - ENSO 200520Z 14008KT CAVOK 06/02 Q1019
VFR 6°C / 1°C 140º 8kt >10km - Clouds and Visibility OK 1019 - ENSO 200450Z 14008KT CAVOK 06/01 Q1019
VFR 6°C / 1°C 130º 6kt >10km - Clouds and Visibility OK 1019 - ENSO 200420Z 13006KT CAVOK 06/01 Q1019
VFR 6°C / 2°C 150º 7kt >10km - Clouds and Visibility OK 1019 - ENSO 200350Z 15007KT CAVOK 06/02 Q1019
VFR 12°C / 3°C 360º 4kt >10km - Clouds and Visibility OK 1023 - ENSO 191720Z 36004KT CAVOK 12/03 Q1023
VFR 13°C / 3°C variable 4kt >10km - Clouds and Visibility OK 1023 - ENSO 191650Z VRB04KT CAVOK 13/03 Q1023
VFR 0°C / 4°C 260º 6kt >10km - Clouds and Visibility OK 1023 - ENSO 191550Z 26006KT 2310V290 CAVOK 187/04 Q1023
VFR 18°C / 2°C 260º variable 230º to 290º 3kt >10km - Clouds and Visibility OK 1023 - ENSO 191520Z 26003KT 230V290 CAVOK 18/02 Q1023

VFR

12°C / 6°C

[Больше]
Ветер 240º variable 170º to 280º 7kt
Видимость >10km
Погода -
Облачность Few Clouds 1500ft
Давление 1015
Изменить -
Необработанный ENSO 201420Z 24007KT 170V280 9999 FEW015 SCT027 BKN150 12/06 Q1015

VFR

11°C / 5°C

[Больше]
Ветер 240º variable 190º to 290º 7kt
Видимость >10km
Погода -
Облачность Few Clouds 2700ft
Давление 1015
Изменить -
Необработанный ENSO 201350Z 24007KT 190V290 9999 FEW027 SCT050 11/05 Q1015

VFR

14°C / 5°C

[Больше]
Ветер 230º 9kt
Видимость >10km
Погода -
Облачность Clouds and Visibility OK
Давление 1016
Изменить -
Необработанный ENSO 201250Z 23009KT CAVOK 14/05 Q1016

VFR

12°C / 5°C

[Больше]
Ветер 210º variable 150º to 270º 11kt Gust 22kt
Видимость >10km
Погода -
Облачность Clouds and Visibility OK
Давление 1016
Изменить -
Необработанный ENSO 201220Z 21011G22KT 150V270 CAVOK 12/05 Q1016

VFR

11°C / 4°C

[Больше]
Ветер 200º 13kt Gust 27kt
Видимость >10km
Погода -
Облачность Clouds and Visibility OK
Давление 1016
Изменить -
Необработанный ENSO 201150Z 20013G27KT CAVOK 11/04 Q1016

VFR

13°C / 4°C

[Больше]
Ветер 200º 14kt
Видимость >10km
Погода -
Облачность Clouds and Visibility OK
Давление 1016
Изменить -
Необработанный ENSO 201120Z 20014KT CAVOK 13/04 Q1016

VFR

12°C / 1°C

[Больше]
Ветер 180º 10kt
Видимость >10km
Погода -
Облачность Clouds and Visibility OK
Давление 1017
Изменить -
Необработанный ENSO 201020Z 18010KT CAVOK 12/01 Q1017

VFR

12°C / 1°C

[Больше]
Ветер 190º variable 150º to 240º 11kt
Видимость >10km
Погода -
Облачность Clouds and Visibility OK
Давление 1017
Изменить -
Необработанный ENSO 200950Z 19011KT 150V240 CAVOK 12/01 Q1017

VFR

13°C / 1°C

[Больше]
Ветер 190º variable 150º to 230º 10kt
Видимость >10km
Погода -
Облачность Clouds and Visibility OK
Давление 1017
Изменить -
Необработанный ENSO 200920Z 19010KT 150V230 CAVOK 13/01 Q1017

VFR

12°C / 0°C

[Больше]
Ветер 140º 11kt
Видимость >10km
Погода -
Облачность Clouds and Visibility OK
Давление 1017
Изменить -
Необработанный ENSO 200850Z 14011KT CAVOK 12/00 Q1017

VFR

11°C / 0°C

[Больше]
Ветер 140º 13kt
Видимость >10km
Погода -
Облачность Clouds and Visibility OK
Давление 1017
Изменить -
Необработанный ENSO 200820Z 14013KT CAVOK 11/00 Q1017

VFR

11°C / 1°C

[Больше]
Ветер 140º 13kt
Видимость >10km
Погода -
Облачность Clouds and Visibility OK
Давление 1018
Изменить -
Необработанный ENSO 200750Z 14013KT CAVOK 11/01 Q1018

VFR

10°C / 1°C

[Больше]
Ветер 140º 12kt
Видимость >10km
Погода -
Облачность Clouds and Visibility OK
Давление 1018
Изменить -
Необработанный ENSO 200720Z 14012KT CAVOK 10/01 Q1018

VFR

9°C / 1°C

[Больше]
Ветер 130º 11kt
Видимость >10km
Погода -
Облачность Clouds and Visibility OK
Давление 1018
Изменить -
Необработанный ENSO 200650Z 13011KT CAVOK 09/01 Q1018

VFR

8°C / 2°C

[Больше]
Ветер 140º 8kt
Видимость >10km
Погода -
Облачность Clouds and Visibility OK
Давление 1018
Изменить -
Необработанный ENSO 200620Z 14008KT CAVOK 08/02 Q1018

VFR

7°C / 2°C

[Больше]
Ветер 170º variable 130º to 220º 5kt
Видимость >10km
Погода -
Облачность Clouds and Visibility OK
Давление 1019
Изменить -
Необработанный ENSO 200550Z 17005KT 130V220 CAVOK 07/02 Q1019

VFR

6°C / 2°C

[Больше]
Ветер 140º 8kt
Видимость >10km
Погода -
Облачность Clouds and Visibility OK
Давление 1019
Изменить -
Необработанный ENSO 200520Z 14008KT CAVOK 06/02 Q1019

VFR

6°C / 1°C

[Больше]
Ветер 140º 8kt
Видимость >10km
Погода -
Облачность Clouds and Visibility OK
Давление 1019
Изменить -
Необработанный ENSO 200450Z 14008KT CAVOK 06/01 Q1019

VFR

6°C / 1°C

[Больше]
Ветер 130º 6kt
Видимость >10km
Погода -
Облачность Clouds and Visibility OK
Давление 1019
Изменить -
Необработанный ENSO 200420Z 13006KT CAVOK 06/01 Q1019

VFR

6°C / 2°C

[Больше]
Ветер 150º 7kt
Видимость >10km
Погода -
Облачность Clouds and Visibility OK
Давление 1019
Изменить -
Необработанный ENSO 200350Z 15007KT CAVOK 06/02 Q1019

VFR

12°C / 3°C

[Больше]
Ветер 360º 4kt
Видимость >10km
Погода -
Облачность Clouds and Visibility OK
Давление 1023
Изменить -
Необработанный ENSO 191720Z 36004KT CAVOK 12/03 Q1023

VFR

13°C / 3°C

[Больше]
Ветер variable 4kt
Видимость >10km
Погода -
Облачность Clouds and Visibility OK
Давление 1023
Изменить -
Необработанный ENSO 191650Z VRB04KT CAVOK 13/03 Q1023

VFR

0°C / 4°C

[Больше]
Ветер 260º 6kt
Видимость >10km
Погода -
Облачность Clouds and Visibility OK
Давление 1023
Изменить -
Необработанный ENSO 191550Z 26006KT 2310V290 CAVOK 187/04 Q1023

VFR

18°C / 2°C

[Больше]
Ветер 260º variable 230º to 290º 3kt
Видимость >10km
Погода -
Облачность Clouds and Visibility OK
Давление 1023
Изменить -
Необработанный ENSO 191520Z 26003KT 230V290 CAVOK 18/02 Q1023

TAF for Stora Risøya (ENSO)

From till


From till Wind 210º 15kt. Visibility 10km or more. Few Clouds 2000ft. Scattered Clouds 4000ft.
Becoming from till Wind 290º 12kt. Visibility 4000m. Rain Mist . Broken Clouds 900ft.

Необработанный: TAF ENSO 201400Z 2015/2018 21015KT 9999 FEW020 SCT040 BECMG 2015/2018 29012KT 4000 RA BR BKN009

Current satellite and rain images for Stora Risøya, Норвегия

  • Осадки:
  • <1 мм
  • 1-2 мм
  • 2-5 мм
  • >5 мм

Указатель местности находится на Stora Risøya. [Больше]

The real-time satellite image combines visible light during daytime with infrared radiation during nighttime. At night, the image is not dark as infrared radiation can detect temperature differences. Unfortunately, low clouds and fog are difficult to distinguish from ground temperatures and thus can be almost invisible during the night. Meteosat satellite images for Europe are updated in real-time every 5 minutes. GOES-16/GOES-17 (North & South America) and Himawari (Asia) images update every 10 minutes.

Вероятность осадков оценивается по данным радиолокаторов и спутников. Спутниковые данные о возможности осадков в ночное время менее точные, чем дневные данные. Оранжевыми крестами отмечаются места,где обнаруживается молния (болееЕвропа).

Копирайт 2021 EUMETSAT / meteoblue. Данные о молниях предоставляются со стороны nowcast.

Радарный и сверхкраткосрочный прогноз осадков для Stora Risøya

Индикатор местности находится на Stora Risøya. Анимация показывает радар осадков за последний час, а также прогноз погоды для1h. Умеренная морось или легкий снег могут быть незаметны для радара. Интенсивность осадковмаркированна цветной кодировкой, начиная со светло-синего и заканчивая темно-пурпурным.

Погода в настоящий момент и предупреждения

EUMETNET – MeteoAlarm

pictomap

Источник: Meteorologisk institutt

Возможны временные задержки между сведениями данного веб сайта и веб сайта www.meteoalarm.euwww.meteoalarm.eu.